createdAt,value
2019-04-29T14:53:02.329Z,102627.09
2019-04-29T14:55:31.803Z,102633.25
2019-04-29T14:58:01.255Z,102624.08
2019-04-29T15:00:50.816Z,102633.25
2019-04-29T15:03:24.907Z,102629.31
2019-04-29T15:05:54.492Z,102628.88
2019-04-29T15:08:24.073Z,102622.78
2019-04-29T15:10:54.132Z,102625.37
2019-04-29T15:13:25.702Z,102619.94
2019-04-29T15:16:09.638Z,102627.90
2019-04-29T15:18:48.692Z,102625.23
2019-04-29T15:21:15.830Z,102632.23
2019-04-29T15:23:45.401Z,102620.08
2019-04-29T15:26:14.936Z,102621.83
2019-04-29T15:28:53.540Z,102625.56
2019-04-29T15:31:23.903Z,102628.48
2019-04-29T15:33:53.501Z,102622.70
2019-04-29T15:36:23.050Z,102625.02
2019-04-29T15:39:08.568Z,102621.47
2019-04-29T15:41:29.462Z,102622.45
2019-04-29T15:44:06.439Z,102617.63
2019-04-29T15:46:25.992Z,102628.03
2019-04-29T15:48:55.556Z,102623.75
2019-04-29T15:51:25.040Z,102622.03
2019-04-29T15:53:54.603Z,102620.27
2019-04-29T15:56:28.731Z,102622.52
2019-04-29T15:58:59.571Z,102617.27
2019-04-29T16:01:28.180Z,102617.86
2019-04-29T16:03:59.250Z,102618.77
2019-04-29T16:06:39.982Z,102614.20
2019-04-29T16:09:10.094Z,102613.57
2019-04-29T16:11:41.224Z,102610.30
2019-04-29T16:14:12.321Z,102612.77
2019-04-29T16:16:41.808Z,102610.17
2019-04-29T16:19:11.251Z,102615.94
2019-04-29T16:21:41.772Z,102616.36
2019-04-29T16:26:42.578Z,102617.94
2019-04-29T16:29:15.144Z,102615.70
2019-04-29T16:31:43.182Z,102612.82
2019-04-29T16:34:12.649Z,102612.64
2019-04-29T16:39:13.487Z,102616.43
2019-04-29T16:41:44.705Z,102611.58
2019-04-29T16:44:34.033Z,102615.00
2019-04-29T16:46:47.238Z,102615.76
2019-04-29T16:49:16.750Z,102614.34
2019-04-29T16:51:47.953Z,102608.68
2019-04-29T16:54:20.516Z,102602.62
2019-04-29T16:56:48.796Z,102600.50
2019-04-29T16:59:18.203Z,102607.44
2019-04-29T17:01:47.824Z,102601.39
2019-04-29T17:04:17.309Z,102612.42
2019-04-29T17:09:31.649Z,102612.14
2019-04-29T17:12:02.292Z,102614.28
2019-04-29T17:14:31.700Z,102616.92
2019-04-29T17:17:03.952Z,102608.56
2019-04-29T17:19:35.043Z,102608.98
2019-04-29T17:24:37.631Z,102605.77
2019-04-29T17:27:14.171Z,102613.22
2019-04-29T17:29:55.549Z,102609.78
2019-04-29T17:32:44.624Z,102607.17
2019-04-29T17:35:10.665Z,102603.83
2019-04-29T17:35:15.681Z,102620.08
2019-04-29T17:35:16.215Z,102613.70
2019-04-29T17:35:17.595Z,102614.68
2019-04-29T17:35:17.729Z,102603.84
2019-04-29T17:37:40.490Z,102613.99
2019-04-29T17:40:11.889Z,102607.91
2019-04-29T17:42:43.077Z,102607.02
2019-04-29T17:45:27.071Z,102607.48
2019-04-29T17:47:59.935Z,102606.33
2019-04-29T17:50:38.618Z,102601.94
2019-04-29T17:53:08.499Z,102607.06
2019-04-29T17:55:42.689Z,102610.55
2019-04-29T17:58:19.977Z,102603.10
2019-04-29T18:00:57.902Z,102604.95
2019-04-29T18:03:27.267Z,102608.59
2019-04-29T18:05:58.363Z,102607.81
2019-04-29T18:08:44.926Z,102607.34
2019-04-29T18:11:15.038Z,102608.58
2019-04-29T18:13:45.842Z,102607.66
2019-04-29T18:16:22.146Z,102606.95
2019-04-29T18:18:57.313Z,102606.11
2019-04-29T18:21:25.003Z,102610.50
2019-04-29T18:23:59.258Z,102608.28
2019-04-29T18:26:35.827Z,102615.74
2019-04-29T18:29:07.963Z,102608.83
2019-04-29T18:31:36.927Z,102616.25
2019-04-29T18:34:06.409Z,102619.87
2019-04-29T18:36:36.057Z,102623.77
2019-04-29T18:39:09.077Z,102613.77
2019-04-29T18:41:38.505Z,102616.00
2019-04-29T18:44:08.088Z,102624.41
2019-04-29T18:46:37.672Z,102621.05
2019-04-29T18:49:07.305Z,102627.14
2019-04-29T18:51:36.822Z,102630.63
2019-04-29T18:54:06.451Z,102626.69
2019-04-29T18:56:36.657Z,102632.34
2019-04-29T18:59:07.484Z,102630.61
2019-04-29T19:01:36.957Z,102630.70
2019-04-29T19:04:16.149Z,102633.37
2019-04-29T19:06:41.187Z,102627.27
2019-04-29T19:09:19.976Z,102630.27
2019-04-29T19:11:43.491Z,102632.02
2019-04-29T19:14:15.096Z,102634.69
2019-04-29T19:16:46.155Z,102635.62
2019-04-29T19:19:15.682Z,102633.83
2019-04-29T19:21:48.155Z,102630.44
2019-04-29T19:24:19.183Z,102637.00
2019-04-29T19:26:55.646Z,102632.63
2019-04-29T19:29:21.194Z,102637.42
2019-04-29T19:31:50.822Z,102635.66
2019-04-29T19:34:20.353Z,102632.65
2019-04-29T19:36:50.729Z,102640.04
2019-04-29T19:39:21.804Z,102643.59
2019-04-29T19:41:52.289Z,102644.03
2019-04-29T19:44:21.700Z,102644.48
2019-04-29T19:46:51.204Z,102648.31
2019-04-29T19:49:20.617Z,102652.73
2019-04-29T19:51:50.077Z,102651.88
2019-04-29T19:54:24.475Z,102652.29
2019-04-29T19:56:55.612Z,102649.28
2019-04-29T19:59:22.258Z,102654.08
2019-04-29T20:02:02.046Z,102650.98
2019-04-29T20:04:31.477Z,102658.02
2019-04-29T20:07:06.510Z,102653.19
2019-04-29T20:09:33.313Z,102658.45
2019-04-29T20:12:11.323Z,102658.03
2019-04-29T20:14:37.002Z,102654.95
2019-04-29T20:17:14.143Z,102659.33
2019-04-29T20:19:45.716Z,102651.48
2019-04-29T20:22:15.928Z,102655.85
2019-04-29T20:24:49.749Z,102651.05
2019-04-29T20:27:16.964Z,102650.58
2019-04-29T20:29:46.604Z,102649.23
2019-04-29T20:32:16.739Z,102651.88
2019-04-29T20:34:47.206Z,102652.34
2019-04-29T20:37:19.781Z,102649.70
2019-04-29T20:39:52.044Z,102649.74
2019-04-29T20:42:19.221Z,102644.95
2019-04-29T20:44:49.483Z,102652.80
2019-04-29T20:47:22.888Z,102649.30
2019-04-29T20:49:50.289Z,102651.48
2019-04-29T20:52:39.657Z,102653.20
2019-04-29T20:55:09.865Z,102653.20
2019-04-29T20:57:39.982Z,102656.69
2019-04-29T21:00:10.111Z,102659.28
2019-04-29T21:02:39.817Z,102656.67
2019-04-29T21:05:19.871Z,102654.08
2019-04-29T21:07:41.349Z,102650.13
2019-04-29T21:10:11.125Z,102650.55
2019-04-29T21:12:42.187Z,102651.49
2019-04-29T21:15:16.167Z,102650.58
2019-04-29T21:17:46.207Z,102651.88
2019-04-29T21:20:15.711Z,102650.59
2019-04-29T21:22:45.577Z,102644.48
2019-04-29T21:25:15.208Z,102646.65
2019-04-29T21:27:46.964Z,102639.23
2019-04-29T21:30:16.009Z,102642.72
2019-04-29T21:32:45.553Z,102643.19
2019-04-29T21:35:26.975Z,102644.05
2019-04-29T21:38:17.914Z,102637.95
2019-04-29T21:40:49.385Z,102640.56
2019-04-29T21:43:20.646Z,102636.66
2019-04-29T21:45:50.175Z,102640.13
2019-04-29T21:48:25.649Z,102643.64
2019-04-29T21:50:50.787Z,102642.30
2019-04-29T21:53:20.454Z,102641.45
2019-04-29T21:55:49.941Z,102642.38
2019-04-29T21:58:19.548Z,102647.61
2019-04-29T22:00:50.015Z,102643.25
2019-04-29T22:03:19.828Z,102645.48
2019-04-29T22:05:53.468Z,102651.59
2019-04-29T22:08:27.163Z,102651.58
2019-04-29T22:11:04.387Z,102648.11
2019-04-29T22:13:30.647Z,102650.34
2019-04-29T22:16:00.211Z,102642.91
2019-04-29T22:18:29.847Z,102643.78
2019-04-29T22:20:59.630Z,102640.31
2019-04-29T22:23:29.110Z,102646.84
2019-04-29T22:25:59.015Z,102643.37
2019-04-29T22:28:28.555Z,102636.84
2019-04-29T22:30:58.169Z,102647.74
2019-04-29T22:33:29.660Z,102646.47
2019-04-29T22:35:59.020Z,102645.19
2019-04-29T22:38:28.758Z,102647.78
2019-04-29T22:40:59.852Z,102642.57
2019-04-29T22:43:33.821Z,102641.27
2019-04-29T22:46:09.512Z,102649.99
2019-04-29T22:48:40.544Z,102649.11
2019-04-29T22:51:10.145Z,102650.87
2019-04-29T22:53:39.992Z,102656.53
2019-04-29T22:56:14.182Z,102649.16
2019-04-29T22:58:43.965Z,102645.66
2019-04-29T23:01:13.389Z,102645.22
2019-04-29T23:03:42.843Z,102642.63
2019-04-29T23:06:12.325Z,102644.83
2019-04-29T23:08:41.853Z,102634.78
2019-04-29T23:11:11.312Z,102632.17
2019-04-29T23:13:40.762Z,102636.11
2019-04-29T23:16:10.353Z,102634.84
2019-04-29T23:18:42.294Z,102629.59
2019-04-29T23:21:16.493Z,102629.16
2019-04-29T23:23:59.581Z,102631.35
2019-04-29T23:26:29.180Z,102630.92
2019-04-29T23:28:59.473Z,102634.41
2019-04-29T23:31:29.847Z,102634.41
2019-04-29T23:33:59.366Z,102631.77
2019-04-29T23:36:28.885Z,102633.10
2019-04-29T23:38:58.346Z,102629.61
2019-04-29T23:41:32.997Z,102629.21
2019-04-29T23:44:00.001Z,102636.61
2019-04-29T23:46:34.183Z,102628.77
2019-04-29T23:49:03.179Z,102630.50
2019-04-29T23:51:36.308Z,102636.13
2019-04-29T23:54:07.874Z,102628.31
2019-04-29T23:56:38.570Z,102624.37
2019-04-29T23:59:18.852Z,102620.93
